Terminal Aerodrome Forecast
Issued by NWS St Louis, MO

Home | Current Version | Previous Version | Text Only | Print | Product List | Glossary On
Versions: 1 2 3 4 5 6 7 8 9 10 11 12 13 14 15
000
FTUS43 KLSX 270528
TAFCOU
TAF
KCOU 270528Z 2706/2806 11004KT 5SM -SHRA VCTS OVC040CB
      TEMPO 2708/2712 2SM TSRA OVC025CB
     FM271500 22009KT P6SM OVC020
     FM272000 26007KT P6SM VCTS BKN020CB
     FM280000 01006KT P6SM BKN050=

USA.gov is the U.S. government's official web portal to all federal, state and local government web resources and services.